Latest Weather Observations for Camooweal

IDD60801

Issued at 11:01 am CST Monday 21 May 2018 (issued every 10 minutes, with the page automatically refreshed every 10 minutes)

About weather observations | Map of weather stations | Latest weather observations for NT | Other Formats
Station Details ID: 037010 Name: CAMOOWEAL TOWNSHIP Lat: -19.92 Lon: 138.12 Height: 231.2 m
Data from the previous 72 hours. | See also: Recent months at Camooweal
Date/Time
CST
Temp
°C
App
Temp
°C
Dew
Point
°C
Rel
Hum
%
Delta-T
°C
Wind Press
QNH
hPa
Press
MSL
hPa
Rain since
9am
mm
Dir  Spd
km/h
Gust
km/h
Spd
kts
Gust
kts
21/11:00am 23.8 15.8 1.4 23 10.6 SE 33 43 18 23 1022.1 1021.3 0.0
21/10:46am 23.7 15.9 1.4 23 10.5 SE 32 50 17 27 1022.6 1021.8 0.0
21/10:30am 23.5 15.6 1.2 23 10.5 SE 32 46 17 25 1022.6 1021.8 0.0
21/10:00am 22.8 15.0 1.8 25 9.9 SE 32 43 17 23 1022.6 1021.8 0.0
21/09:30am 21.5 13.1 1.7 27 9.2 SE 35 48 19 26 1022.4 1021.6 0.0
21/09:00am 20.7 12.7 1.6 28 8.9 SE 33 44 18 24 1022.0 1021.2 0.0
21/08:30am 19.2 11.8 1.7 31 8.0 SE 30 39 16 21 1021.8 1021.0 0.0
21/08:00am 17.9 11.3 1.8 34 7.3 SSE 26 35 14 19 1021.6 1020.8 0.0
21/07:30am 16.6 10.7 1.9 37 6.6 SSE 22 28 12 15 1021.4 1020.6 0.0
21/07:00am 15.8 10.3 1.9 39 6.2 SSE 20 30 11 16 1021.1 1020.3 0.0
21/06:30am 15.7 10.2 1.8 39 6.2 SSE 20 26 11 14 1020.9 1020.0 0.0
21/06:00am 16.0 10.5 1.7 38 6.4 SSE 20 30 11 16 1020.4 1019.5 0.0
21/05:30am 16.3 10.8 2.0 38 6.4 SSE 20 26 11 14 1020.1 1019.2 0.0
21/05:00am 16.6 11.0 1.5 36 6.8 SSE 20 28 11 15 1019.9 1019.0 0.0
21/04:30am 16.8 11.2 1.3 35 6.9 SSE 20 28 11 15 1019.9 1019.0 0.0
21/04:00am 17.0 11.4 1.0 34 7.1 SSE 20 28 11 15 1019.6 1018.8 0.0
21/03:30am 17.3 11.7 0.9 33 7.3 SSE 20 30 11 16 1019.5 1018.7 0.0
21/03:00am 17.2 12.1 0.8 33 7.3 SSE 17 24 9 13 1019.6 1018.8 0.0
21/02:30am 17.3 12.7 1.3 34 7.2 SSE 15 20 8 11 1019.6 1018.8 0.0
21/02:00am 17.7 12.7 1.2 33 7.4 SSE 17 20 9 11 1019.6 1018.8 0.0
21/01:30am 18.4 13.4 1.4 32 7.7 SSE 17 22 9 12 1019.8 1018.9 0.0
21/01:00am 18.3 13.4 1.8 33 7.5 SSE 17 20 9 11 1019.9 1019.0 0.0
21/12:30am 18.2 13.7 2.1 34 7.4 SSE 15 19 8 10 1019.9 1019.0 0.0
21/12:00am 18.2 14.1 2.1 34 7.4 SSE 13 20 7 11 1020.1 1019.2 0.0
 
Date/Time
CST
Temp
°C
App
Temp
°C
Dew
Point
°C
Rel
Hum
%
Delta-T
°C
Wind Press
QNH
hPa
Press
MSL
hPa
Rain since
9am
mm
Dir  Spd
km/h
Gust
km/h
Spd
kts
Gust
kts
20/11:30pm 19.0 14.9 2.4 33 7.7 SSE 13 19 7 10 1020.2 1019.3 0.0
20/11:00pm 18.9 15.3 2.7 34 7.6 SSE 11 17 6 9 1020.2 1019.3 0.0
20/10:30pm 20.3 15.6 3.1 32 8.2 SSE 17 22 9 12 1020.5 1019.6 0.0
20/10:00pm 19.7 15.7 3.0 33 7.9 SSE 13 17 7 9 1020.5 1019.6 0.0
20/09:30pm 20.4 16.5 3.2 32 8.2 SSE 13 17 7 9 1020.5 1019.6 0.0
20/09:00pm 21.6 17.0 3.8 31 8.7 SSE 17 22 9 12 1020.3 1019.4 0.0
20/08:30pm 22.5 17.5 3.6 29 9.2 SSE 19 26 10 14 1020.1 1019.2 0.0
20/08:00pm 23.3 18.2 4.3 29 9.5 SSE 20 28 11 15 1019.9 1019.0 0.0
20/07:30pm 23.5 19.1 4.9 30 9.4 S 17 22 9 12 1019.4 1018.6 0.0
20/07:00pm 23.8 19.8 4.7 29 9.6 SSE 15 19 8 10 1018.8 1018.0 0.0
20/06:30pm 24.6 20.7 5.4 29 9.8 SSE 15 19 8 10 1018.4 1017.6 0.0
20/06:00pm 26.1 21.5 5.7 27 10.6 SSE 19 26 10 14 1017.9 1017.1 0.0
20/05:30pm 27.0 21.9 5.9 26 11.1 SE 22 32 12 17 1017.4 1016.6 0.0
20/05:00pm 27.8 22.3 6.0 25 11.5 SSE 24 35 13 19 1017.3 1016.5 0.0
20/04:30pm 28.6 23.1 6.1 24 11.9 SSE 24 33 13 18 1016.9 1016.0 0.0
20/04:00pm 29.1 24.0 5.9 23 12.3 SE 22 35 12 19 1016.8 1015.9 0.0
20/03:30pm 29.9 25.3 6.5 23 12.6 SE 20 32 11 17 1016.8 1015.9 0.0
20/03:00pm 29.6 25.1 6.9 24 12.3 SE 20 26 11 14 1016.9 1016.0 0.0
20/02:30pm 28.9 25.0 6.9 25 11.9 SE 17 28 9 15 1017.0 1016.1 0.0
20/02:00pm 29.1 24.8 7.1 25 11.9 ESE 19 28 10 15 1016.9 1016.0 0.0
20/01:30pm 28.9 24.6 6.9 25 11.9 ESE 19 26 10 14 1017.2 1016.4 0.0
20/01:00pm 28.8 24.3 6.2 24 12.0 ESE 19 30 10 16 1017.8 1017.0 0.0
20/12:30pm 27.8 22.5 4.8 23 11.9 SE 22 35 12 19 1018.4 1017.6 0.0
20/12:00pm 27.3 21.6 5.0 24 11.5 SE 24 35 13 19 1018.9 1018.1 0.0
20/11:30am 26.6 20.6 3.2 22 11.6 SE 24 41 13 22 1019.1 1018.3 0.0
20/11:00am 26.2 20.2 3.5 23 11.4 SE 24 37 13 20 1019.4 1018.6 0.0
20/10:30am 24.3 17.7 1.9 23 10.7 SE 26 35 14 19 1019.6 1018.8 0.0
20/10:00am 23.5 16.6 2.4 25 10.2 SE 28 39 15 21 1019.4 1018.6 0.0
20/09:30am 21.0 14.5 0.2 25 9.4 SSE 24 32 13 17 1019.8 1018.9 0.0
20/09:28am 20.9 14.5 0.7 26 9.2 SSE 24 33 13 18 1019.8 1018.9 0.0
20/09:00am 15.9 10.6 -0.8 32 7.1 SSE 17 20 9 11 1019.9 1019.0 0.0
20/08:30am 14.9 9.1 -1.2 33 6.7 S 19 24 10 13 1019.8 1018.9 0.0
20/08:00am 14.2 8.8 -1.4 34 6.4 S 17 22 9 12 1019.6 1018.8 0.0
20/07:30am 13.8 8.0 -1.4 35 6.2 S 19 26 10 14 1019.1 1018.3 0.0
20/07:00am 13.5 8.1 -1.3 36 6.1 S 17 26 9 14 1018.7 1017.9 0.0
20/06:30am 13.7 7.7 -1.5 35 6.2 S 20 28 11 15 1018.5 1017.7 0.0
20/06:00am 14.1 8.1 -1.5 34 6.4 S 20 30 11 16 1018.2 1017.4 0.0
20/05:30am 14.5 8.5 -1.6 33 6.6 S 20 30 11 16 1018.1 1017.3 0.0
20/05:00am 14.7 8.7 -1.4 33 6.7 S 20 28 11 15 1018.1 1017.3 0.0
20/04:30am 15.2 9.2 -1.4 32 6.9 S 20 30 11 16 1018.1 1017.3 0.0
20/04:00am 15.4 9.4 -1.6 31 7.1 S 20 30 11 16 1018.2 1017.4 0.0
20/03:30am 15.8 9.8 -1.3 31 7.1 S 20 26 11 14 1018.3 1017.5 0.0
20/03:00am 16.5 9.8 -1.1 30 7.5 S 24 33 13 18 1018.3 1017.5 0.0
20/02:30am 16.9 10.6 -1.2 29 7.7 S 22 32 12 17 1018.4 1017.6 0.0
20/02:00am 17.4 11.1 -1.3 28 8.0 S 22 28 12 15 1018.5 1017.7 0.0
20/01:30am 17.7 11.4 -1.0 28 8.0 S 22 30 12 16 1018.9 1018.1 0.0
20/01:00am 17.9 11.6 -0.8 28 8.1 S 22 32 12 17 1018.8 1018.0 0.0
20/12:30am 18.3 12.4 -0.5 28 8.2 S 20 28 11 15 1018.9 1018.1 0.0
20/12:00am 19.0 13.3 0.6 29 8.3 S 20 28 11 15 1019.1 1018.3 0.0
 
Date/Time
CST
Temp
°C
App
Temp
°C
Dew
Point
°C
Rel
Hum
%
Delta-T
°C
Wind Press
QNH
hPa
Press
MSL
hPa
Rain since
9am
mm
Dir  Spd
km/h
Gust
km/h
Spd
kts
Gust
kts
19/11:30pm 19.7 14.0 0.7 28 8.6 S 20 28 11 15 1019.0 1018.2 0.0
19/11:00pm 19.6 13.9 0.6 28 8.6 S 20 26 11 14 1019.1 1018.3 0.0
19/10:30pm 19.4 14.3 0.9 29 8.4 S 17 24 9 13 1019.3 1018.5 0.0
19/10:00pm 19.0 14.0 1.1 30 8.1 S 17 20 9 11 1019.3 1018.5 0.0
19/09:30pm 19.2 14.2 1.2 30 8.2 S 17 20 9 11 1019.2 1018.4 0.0
19/09:00pm 19.1 14.4 0.7 29 8.3 S 15 19 8 10 1019.1 1018.3 0.0
19/08:30pm 18.5 14.1 0.6 30 8.0 S 13 17 7 9 1019.1 1018.3 0.0
19/08:00pm 20.3 16.0 0.7 27 8.9 S 13 15 7 8 1018.7 1017.9 0.0
19/07:30pm 22.0 17.7 1.1 25 9.7 SSE 13 19 7 10 1018.2 1017.4 0.0
19/07:00pm 22.4 18.2 1.4 25 9.8 S 13 17 7 9 1017.9 1017.1 0.0
19/06:30pm 23.7 18.7 1.4 23 10.5 SSE 17 22 9 12 1017.4 1016.6 0.0
19/06:00pm 24.4 19.4 1.3 22 11.0 SSE 17 24 9 13 1017.2 1016.4 0.0
19/05:30pm 25.0 20.0 1.2 21 11.3 SSE 17 26 9 14 1016.8 1015.9 0.0
19/05:00pm 25.9 19.7 1.9 21 11.6 S 24 32 13 17 1016.7 1015.8 0.0
19/04:30pm 26.3 20.9 2.3 21 11.7 SSE 20 32 11 17 1016.4 1015.5 0.0
19/04:00pm 26.4 21.1 3.0 22 11.6 SSE 20 26 11 14 1016.2 1015.3 0.0
19/03:30pm 27.0 21.5 4.1 23 11.6 S 22 35 12 19 1016.1 1015.2 0.0
19/03:00pm 27.4 21.3 2.5 20 12.3 S 24 35 13 19 1015.9 1015.0 0.0
19/02:30pm 27.6 22.5 3.3 21 12.2 SE 19 30 10 16 1016.2 1015.3 0.0
19/02:00pm 27.3 22.1 3.7 22 11.9 SSE 20 33 11 18 1016.2 1015.3 0.0
19/01:30pm 27.6 22.5 4.0 22 12.0 SSE 20 35 11 19 1016.8 1015.9 0.0
19/01:00pm 26.0 19.8 2.0 21 11.7 SE 24 32 13 17 1017.1 1016.2 0.0
19/12:30pm 25.6 19.4 2.3 22 11.3 SSE 24 35 13 19 1017.6 1016.8 0.0
19/12:00pm 25.3 18.5 0.8 20 11.6 SSE 26 37 14 20 1018.2 1017.4 0.0
19/11:30am 24.5 18.5 0.8 21 11.1 SE 22 35 12 19 1018.5 1017.7 0.0
19/11:00am 22.5 16.4 0.4 23 10.2 SE 22 30 12 16 1019.0 1018.2 0.0
19/10:30am 21.0 14.3 -0.9 23 9.7 SSE 24 33 13 18 1019.3 1018.5 0.0
19/10:00am 20.9 14.3 -0.4 24 9.5 SSE 24 32 13 17 1019.5 1018.7 0.0
19/09:30am 19.1 12.4 -0.8 26 8.7 SSE 24 33 13 18 1019.5 1018.7 0.0
19/09:00am 17.0 11.1 -0.7 30 7.6 S 20 28 11 15 1019.5 1018.7 0.0
19/08:30am 15.9 9.2 -1.2 31 7.2 S 24 32 13 17 1019.4 1018.6 0.0
19/08:00am 13.5 7.5 -1.6 35 6.1 S 20 30 11 16 1019.5 1018.7 0.0
19/07:30am 12.7 6.9 -1.6 37 5.8 S 19 26 10 14 1019.4 1018.6 0.0
19/07:00am 11.9 6.4 -1.9 38 5.5 S 17 24 9 13 1018.9 1018.1 0.0
19/06:30am 12.1 6.2 -2.5 36 5.7 S 19 24 10 13 1018.4 1017.6 0.0
19/06:00am 11.9 6.3 -3.1 35 5.8 S 17 24 9 13 1018.4 1017.6 0.0
19/05:30am 12.3 6.2 -3.5 33 6.1 S 19 24 10 13 1018.4 1017.6 0.0
19/05:00am 12.7 6.4 -4.0 31 6.4 S 20 26 11 14 1018.0 1017.2 0.0
19/04:30am 12.9 6.6 -4.2 30 6.5 SSE 20 32 11 17 1018.0 1017.2 0.0
19/04:00am 13.1 6.7 -4.5 29 6.7 S 20 26 11 14 1018.4 1017.6 0.0
19/03:30am 13.4 7.2 -5.2 27 7.0 S 19 28 10 15 1018.2 1017.4 0.0
19/03:00am 13.9 7.5 -5.3 26 7.2 S 20 28 11 15 1018.4 1017.6 0.0
19/02:30am 14.1 7.7 -5.1 26 7.3 S 20 28 11 15 1018.3 1017.5 0.0
19/02:00am 14.8 8.4 -5.0 25 7.6 SSE 20 28 11 15 1018.5 1017.7 0.0
19/01:30am 15.3 8.9 -5.1 24 7.8 SSE 20 30 11 16 1018.7 1017.9 0.0
19/01:00am 15.4 9.0 -4.5 25 7.8 S 20 28 11 15 1018.8 1018.0 0.0
19/12:30am 15.7 9.6 -4.2 25 7.8 S 19 28 10 15 1019.0 1018.2 0.0
19/12:00am 16.3 10.0 -4.3 24 8.1 S 20 28 11 15 1019.3 1018.5 0.0
 
Date/Time
CST
Temp
°C
App
Temp
°C
Dew
Point
°C
Rel
Hum
%
Delta-T
°C
Wind Press
QNH
hPa
Press
MSL
hPa
Rain since
9am
mm
Dir  Spd
km/h
Gust
km/h
Spd
kts
Gust
kts
18/11:30pm 16.9 10.2 -4.3 23 8.4 S 22 32 12 17 1019.6 1018.8 0.0
18/11:00pm 17.2 10.5 -4.1 23 8.5 S 22 32 12 17 1019.4 1018.6 0.0
18/10:30pm 17.0 10.7 -3.7 24 8.3 S 20 28 11 15 1019.2 1018.4 0.0
18/10:00pm 17.0 11.4 -3.1 25 8.2 S 17 22 9 12 1019.0 1018.2 0.0
18/09:30pm 17.9 12.3 -2.9 24 8.6 SSE 17 20 9 11 1019.1 1018.3 0.0
18/09:00pm 18.9 13.4 -2.1 24 8.9 S 17 24 9 13 1019.1 1018.3 0.0
18/08:30pm 19.7 13.8 -2.0 23 9.3 SSE 19 24 10 13 1018.9 1018.1 0.0
18/08:00pm 20.2 14.4 -1.6 23 9.5 SSE 19 22 10 12 1018.9 1018.1 0.0
18/07:30pm 20.8 15.0 -1.7 22 9.8 S 19 26 10 14 1018.4 1017.6 0.0
18/07:00pm 21.2 15.8 -1.3 22 9.9 S 17 20 9 11 1017.9 1017.1 0.0
18/06:30pm 22.0 17.0 -1.3 21 10.3 SSE 15 20 8 11 1017.5 1016.7 0.0
18/06:00pm 23.3 17.5 -1.6 19 11.1 SSE 19 28 10 15 1017.1 1016.2 0.0
18/05:30pm 24.4 16.9 -1.4 18 11.6 SSE 28 41 15 22 1016.7 1015.8 0.0
18/05:00pm 25.2 17.7 -1.6 17 12.1 SSE 28 43 15 23 1016.5 1015.6 0.0
18/04:30pm 25.9 18.3 -1.8 16 12.5 SE 28 44 15 24 1016.3 1015.4 0.0
18/04:00pm 26.4 18.5 -1.4 16 12.7 SE 30 43 16 23 1016.3 1015.4 0.0
18/03:30pm 26.5 18.1 -2.2 15 13.0 SE 32 44 17 24 1016.4 1015.5 0.0
18/03:00pm 26.5 18.1 -2.2 15 13.0 SSE 32 50 17 27 1016.7 1015.8 0.0
18/02:30pm 27.3 19.0 -1.6 15 13.3 SSE 32 56 17 30 1016.8 1015.9 0.0
18/02:21pm 26.8 18.6 -1.1 16 12.9 SE 32 56 17 30 1016.9 1016.0 0.0
18/02:00pm 27.3 19.9 -0.7 16 13.1 SE 28 43 15 23 1017.1 1016.2 0.0
18/01:46pm 26.8 18.7 -0.3 17 12.7 SSE 32 52 17 28 1017.1 1016.2 0.0
18/01:30pm 26.6 18.9 -0.4 17 12.6 SE 30 43 16 23 1017.5 1016.7 0.0
18/01:02pm 26.6 19.2 -0.4 17 12.6 SE 28 46 15 25 1018.1 1017.3 0.0
18/01:00pm 26.6 18.5 -0.4 17 12.6 SE 32 48 17 26 1018.1 1017.3 0.0
18/12:30pm 25.7 18.3 -0.4 18 12.1 SE 28 48 15 26 1018.8 1018.0 0.0
18/12:20pm 26.3 19.0 0.1 18 12.3 SE 28 46 15 25 1019.0 1018.2 0.0
18/12:00pm 25.5 17.5 0.2 19 11.9 SE 32 46 17 25 1019.4 1018.6 0.0
18/11:30am 25.3 18.1 0.8 20 11.6 ESE 28 43 15 23 1019.6 1018.8 0.0
18/11:00am 24.0 17.1 0.4 21 11.0 SE 26 39 14 21 1020.2 1019.3 0.0

Other Formats:

Comma delimited format used in spreadsheet applications
http://www.bom.gov.au/fwo/IDD60801/IDD60801.94255.axf

JavaScript Object Notation format (JSON) in row-major order
http://www.bom.gov.au/fwo/IDD60801/IDD60801.94255.json